createdAt,value
2019-04-10T00:02:00.140Z,82.90
2019-04-10T00:04:29.588Z,83.20
2019-04-10T00:07:08.386Z,83.70
2019-04-10T00:09:29.090Z,83.20
2019-04-10T00:11:58.910Z,83.00
2019-04-10T00:14:28.279Z,83.40
2019-04-10T00:16:57.493Z,83.50
2019-04-10T00:19:26.718Z,83.40
2019-04-10T00:21:55.741Z,83.80
2019-04-10T00:24:24.540Z,84.00
2019-04-10T00:26:54.371Z,84.60
2019-04-10T00:29:24.434Z,84.90
2019-04-10T00:31:54.210Z,84.90
2019-04-10T00:34:23.343Z,85.00
2019-04-10T00:36:53.271Z,85.30
2019-04-10T00:39:22.330Z,85.70
2019-04-10T00:41:52.510Z,86.10
2019-04-10T00:44:21.638Z,86.60
2019-04-10T00:46:50.731Z,87.10
2019-04-10T00:49:19.769Z,87.60
2019-04-10T00:51:49.912Z,87.70
2019-04-10T00:54:19.052Z,88.10
2019-04-10T00:56:48.552Z,88.40
2019-04-10T00:59:17.803Z,88.30
2019-04-10T01:01:47.793Z,88.20
2019-04-10T01:04:16.861Z,88.00
2019-04-10T01:06:46.296Z,88.00
2019-04-10T01:09:15.443Z,88.00
2019-04-10T01:11:45.469Z,88.10
2019-04-10T01:14:15.790Z,88.00
2019-04-10T01:16:44.733Z,87.80
2019-04-10T01:19:13.633Z,88.20
2019-04-10T01:21:42.533Z,88.10
2019-04-10T01:24:11.419Z,88.20
2019-04-10T01:26:40.307Z,88.00
2019-04-10T01:29:09.333Z,87.90
2019-04-10T01:31:39.329Z,88.20
2019-04-10T01:34:09.365Z,88.50
2019-04-10T01:36:39.386Z,88.60
2019-04-10T01:39:10.440Z,88.80
2019-04-10T01:41:39.864Z,88.90
2019-04-10T01:44:08.819Z,88.90
2019-04-10T01:46:38.136Z,88.90
2019-04-10T01:49:07.151Z,88.70
2019-04-10T01:51:36.234Z,88.30
2019-04-10T01:54:05.014Z,87.90
2019-04-10T01:56:36.323Z,87.60
2019-04-10T01:59:05.645Z,87.70
2019-04-10T02:01:39.271Z,87.70
2019-04-10T02:04:08.902Z,87.70
2019-04-10T02:06:37.967Z,87.60
2019-04-10T02:09:09.215Z,87.50
2019-04-10T02:11:39.881Z,87.40
2019-04-10T02:14:08.971Z,87.30
2019-04-10T02:16:38.910Z,86.80
2019-04-10T02:19:08.230Z,87.10
2019-04-10T02:21:38.027Z,87.40
2019-04-10T02:24:07.095Z,87.70
2019-04-10T02:26:36.210Z,87.70
2019-04-10T02:29:05.085Z,87.90
2019-04-10T02:31:34.602Z,87.90
2019-04-10T02:34:04.805Z,88.00
2019-04-10T02:36:34.468Z,88.10
2019-04-10T02:39:19.424Z,88.40
2019-04-10T02:41:36.424Z,88.20
2019-04-10T02:44:05.536Z,87.80
2019-04-10T02:46:34.537Z,87.70
2019-04-10T02:49:04.202Z,87.50
2019-04-10T02:51:35.063Z,88.10
2019-04-10T02:54:05.038Z,87.80
2019-04-10T02:56:34.370Z,87.30
2019-04-10T02:59:04.979Z,87.30
2019-04-10T03:01:33.931Z,87.40
2019-04-10T03:04:03.398Z,87.90
2019-04-10T03:06:33.575Z,88.00
2019-04-10T03:09:24.124Z,88.20
2019-04-10T03:11:35.836Z,88.70
2019-04-10T03:14:05.387Z,88.80
2019-04-10T03:16:35.384Z,88.70
2019-04-10T03:19:05.329Z,88.60
2019-04-10T03:21:35.342Z,88.60
2019-04-10T03:24:04.410Z,88.30
2019-04-10T03:26:33.971Z,88.30
2019-04-10T03:29:03.235Z,88.00
2019-04-10T03:31:34.223Z,88.20
2019-04-10T03:34:19.239Z,88.00
2019-04-10T03:36:47.595Z,88.10
2019-04-10T03:39:17.422Z,87.80
2019-04-10T03:41:46.422Z,87.90
2019-04-10T03:44:15.197Z,88.20
2019-04-10T03:53:11.826Z,88.50
2019-04-10T03:55:41.011Z,88.90
2019-04-10T03:58:10.060Z,89.00
2019-04-10T04:00:39.163Z,89.10
2019-04-10T04:03:08.527Z,89.20
2019-04-10T04:05:37.465Z,89.10
2019-04-10T04:08:06.231Z,88.80
2019-04-10T04:10:35.458Z,88.70
2019-04-10T04:13:05.982Z,88.80
2019-04-10T04:15:35.812Z,89.60
2019-04-10T04:18:04.811Z,90.00
2019-04-10T04:20:33.780Z,90.10
2019-04-10T04:23:03.458Z,90.00
2019-04-10T04:25:32.563Z,90.00
2019-04-10T04:28:02.482Z,90.00
2019-04-10T04:30:32.079Z,89.60
2019-04-10T04:33:01.101Z,89.70
2019-04-10T04:35:31.004Z,89.40
2019-04-10T04:38:00.441Z,89.50
2019-04-10T04:40:30.015Z,89.30
2019-04-10T04:43:00.055Z,89.40
2019-04-10T04:45:29.930Z,89.30
2019-04-10T04:47:59.688Z,89.10
2019-04-10T04:50:29.293Z,89.10
2019-04-10T04:52:58.283Z,89.00
2019-04-10T04:55:27.204Z,88.90
2019-04-10T04:57:55.975Z,88.30
2019-04-10T05:00:25.706Z,88.30
2019-04-10T05:02:55.704Z,88.20
2019-04-10T05:05:25.267Z,88.40
2019-04-10T05:07:59.656Z,88.10
2019-04-10T05:10:25.223Z,87.60
2019-04-10T05:18:57.153Z,86.30
2019-04-10T05:21:25.941Z,86.90
2019-04-10T05:23:55.447Z,86.70
2019-04-10T05:26:24.335Z,86.70
2019-04-10T05:28:53.130Z,86.40
2019-04-10T05:31:21.917Z,85.90
2019-04-10T05:33:51.268Z,85.80
2019-04-10T05:36:20.215Z,86.50
2019-04-10T05:38:48.967Z,85.20
2019-04-10T05:41:17.977Z,84.90
2019-04-10T05:43:46.834Z,84.30
2019-04-10T05:46:16.525Z,83.00
2019-04-10T05:48:46.213Z,82.40
2019-04-10T05:51:15.133Z,82.50
2019-04-10T05:53:44.872Z,81.40
2019-04-10T05:56:13.960Z,80.00
2019-04-10T05:58:44.849Z,78.20
2019-04-10T06:01:13.882Z,76.80
2019-04-10T06:03:42.892Z,76.00
2019-04-10T06:06:12.524Z,76.00
2019-04-10T06:08:41.563Z,76.50
2019-04-10T06:11:10.741Z,76.90
2019-04-10T06:13:40.842Z,76.60
2019-04-10T06:16:09.845Z,75.70
2019-04-10T06:18:39.579Z,74.60
2019-04-10T06:21:08.519Z,74.70
2019-04-10T06:29:35.701Z,73.30
2019-04-10T06:32:05.333Z,74.50
2019-04-10T06:34:34.310Z,73.50
2019-04-10T06:37:04.031Z,73.90
2019-04-10T06:39:33.132Z,73.90
2019-04-10T06:42:02.515Z,74.50
2019-04-10T06:44:32.165Z,74.90
2019-04-10T06:47:02.161Z,76.50
2019-04-10T06:49:31.144Z,78.20
2019-04-10T06:51:59.973Z,79.20
2019-04-10T06:54:28.925Z,79.70
2019-04-10T06:56:58.646Z,79.60
2019-04-10T06:59:28.304Z,79.40
2019-04-10T07:02:10.844Z,79.80
2019-04-10T07:04:28.384Z,80.00
2019-04-10T07:07:03.430Z,80.10
2019-04-10T07:09:27.891Z,80.20
2019-04-10T07:11:59.725Z,80.70
2019-04-10T07:14:27.215Z,80.80
2019-04-10T07:17:01.672Z,80.30
2019-04-10T07:19:26.493Z,81.20
2019-04-10T07:21:55.478Z,80.30
2019-04-10T07:24:25.731Z,80.70
2019-04-10T07:26:55.261Z,81.00
2019-04-10T07:29:26.638Z,82.20
2019-04-10T07:31:54.973Z,81.90
2019-04-10T07:34:25.551Z,82.00
2019-04-10T07:36:54.359Z,82.40
2019-04-10T07:39:26.041Z,82.50
2019-04-10T07:41:53.692Z,82.60
2019-04-10T07:44:22.537Z,82.50
2019-04-10T07:46:51.282Z,82.60
2019-04-10T07:49:21.162Z,82.20
2019-04-10T07:51:50.700Z,82.30
2019-04-10T07:54:21.264Z,82.50
2019-04-10T07:56:50.013Z,82.40
2019-04-10T07:59:18.794Z,81.70
2019-04-10T08:01:47.652Z,80.90
2019-04-10T08:04:16.456Z,80.60
2019-04-10T08:06:45.350Z,78.90
2019-04-10T08:09:14.758Z,77.80
2019-04-10T08:11:44.797Z,75.00
2019-04-10T08:14:14.838Z,72.20
2019-04-10T08:16:43.766Z,70.30
2019-04-10T08:19:12.562Z,68.70
2019-04-10T08:21:42.323Z,66.00
2019-04-10T08:24:12.011Z,65.90
2019-04-10T08:26:40.963Z,65.30
2019-04-10T08:29:09.954Z,63.70
2019-04-10T08:31:39.662Z,60.90
2019-04-10T08:34:08.880Z,58.30
2019-04-10T08:36:37.871Z,56.00
2019-04-10T08:39:07.811Z,54.50
2019-04-10T08:41:37.274Z,55.50
2019-04-10T08:44:06.522Z,54.20
2019-04-10T08:46:35.782Z,54.90
2019-04-10T08:49:05.626Z,55.30
2019-04-10T08:51:35.317Z,56.10
2019-04-10T08:54:04.517Z,56.20
2019-04-10T08:56:33.386Z,56.90
2019-04-10T08:59:02.179Z,57.30
2019-04-10T09:01:31.488Z,56.50
2019-04-10T09:04:01.403Z,56.40
2019-04-10T09:06:31.286Z,55.30
2019-04-10T09:09:01.324Z,54.10
2019-04-10T09:11:32.602Z,54.50
2019-04-10T09:14:01.037Z,55.20
2019-04-10T09:16:30.978Z,56.20
2019-04-10T09:18:59.946Z,56.40
2019-04-10T09:21:28.854Z,57.30
2019-04-10T09:23:58.968Z,57.60
2019-04-10T09:26:28.604Z,57.00
2019-04-10T09:28:57.510Z,56.50
2019-04-10T09:31:26.396Z,56.30
2019-04-10T09:33:55.752Z,54.70
2019-04-10T09:36:24.932Z,55.40
2019-04-10T09:38:54.907Z,53.90
2019-04-10T09:41:23.952Z,53.50
2019-04-10T09:43:53.919Z,52.30
2019-04-10T09:46:22.909Z,50.50
2019-04-10T09:48:51.981Z,51.30
2019-04-10T09:51:21.477Z,52.80
2019-04-10T09:53:51.077Z,52.40
2019-04-10T09:56:19.974Z,53.00
2019-04-10T09:58:49.171Z,52.70
2019-04-10T10:01:18.306Z,53.20
2019-04-10T10:03:47.217Z,52.90
2019-04-10T10:06:25.234Z,53.20
2019-04-10T10:08:46.478Z,52.90
2019-04-10T10:11:15.287Z,52.10
2019-04-10T10:13:44.090Z,51.60
2019-04-10T10:16:12.912Z,51.90
2019-04-10T10:18:41.688Z,52.10
2019-04-10T10:21:10.563Z,52.30
2019-04-10T10:23:40.101Z,53.10
2019-04-10T10:26:09.983Z,53.20
2019-04-10T10:28:39.524Z,53.80
2019-04-10T10:31:08.355Z,54.20
2019-04-10T10:33:37.523Z,54.20
2019-04-10T10:36:07.405Z,53.50
2019-04-10T10:38:36.981Z,53.00
2019-04-10T10:41:06.726Z,53.80
2019-04-10T10:43:36.277Z,53.80
2019-04-10T10:46:05.237Z,53.20
2019-04-10T10:48:33.965Z,53.20
2019-04-10T10:51:04.618Z,53.50
2019-04-10T10:53:34.506Z,53.80
2019-04-10T10:56:04.301Z,53.10
2019-04-10T10:58:33.355Z,53.30
2019-04-10T11:01:03.270Z,53.30
2019-04-10T11:03:32.273Z,53.60
2019-04-10T11:06:01.067Z,53.50
2019-04-10T11:08:29.873Z,54.10
2019-04-10T11:10:59.462Z,54.30
2019-04-10T11:13:30.757Z,54.30
2019-04-10T11:18:30.818Z,51.50
2019-04-10T11:23:30.554Z,49.90
2019-04-10T11:26:02.150Z,49.80
2019-04-10T11:28:32.272Z,49.40
2019-04-10T11:31:01.838Z,48.40
2019-04-10T11:33:30.833Z,47.80
2019-04-10T11:36:00.199Z,47.50
2019-04-10T11:38:29.307Z,48.00
2019-04-10T11:40:59.964Z,48.40
2019-04-10T11:43:30.257Z,49.60
2019-04-10T11:48:30.126Z,50.70
2019-04-10T11:51:01.117Z,51.10
2019-04-10T11:53:32.611Z,51.30
2019-04-10T11:56:05.191Z,50.70
2019-04-10T11:58:31.271Z,51.40
2019-04-10T12:01:02.536Z,52.30
2019-04-10T12:03:31.460Z,53.50
2019-04-10T12:06:04.223Z,54.40
2019-04-10T12:09:00.365Z,54.90
2019-04-10T12:13:30.806Z,55.60
2019-04-10T12:16:00.911Z,54.80
2019-04-10T12:18:30.741Z,54.50
2019-04-10T12:20:59.775Z,54.00
2019-04-10T12:23:29.241Z,52.40
2019-04-10T12:25:59.066Z,51.20
2019-04-10T12:28:28.268Z,51.10
2019-04-10T12:30:57.151Z,50.40
2019-04-10T12:33:25.895Z,51.20
2019-04-10T12:35:54.730Z,52.10
2019-04-10T12:38:23.478Z,52.00
2019-04-10T12:40:52.955Z,52.10
2019-04-10T12:43:22.852Z,53.20
2019-04-10T12:45:52.645Z,53.50
2019-04-10T12:48:22.706Z,54.00
2019-04-10T12:50:52.828Z,54.50
2019-04-10T12:53:21.965Z,53.60
2019-04-10T12:55:51.406Z,53.90
2019-04-10T12:58:20.692Z,54.10
2019-04-10T13:00:50.615Z,53.90
2019-04-10T13:03:19.359Z,54.20
2019-04-10T13:05:49.283Z,54.60
2019-04-10T13:08:22.754Z,54.00
2019-04-10T13:10:48.698Z,53.90
2019-04-10T13:13:17.891Z,53.70
2019-04-10T13:15:47.668Z,53.80
2019-04-10T13:18:16.533Z,54.10
2019-04-10T13:20:46.114Z,54.10
2019-04-10T13:23:16.664Z,54.20
2019-04-10T13:25:56.960Z,54.00
2019-04-10T13:28:17.064Z,54.00
2019-04-10T13:30:51.278Z,53.40
2019-04-10T13:33:16.330Z,54.00
2019-04-10T13:35:46.209Z,53.40
2019-04-10T13:38:24.004Z,53.40
2019-04-10T13:40:45.930Z,52.50
2019-04-10T13:43:15.886Z,52.70
2019-04-10T13:45:45.773Z,52.40
2019-04-10T13:48:14.723Z,52.30
2019-04-10T13:50:44.370Z,52.40
2019-04-10T13:53:13.414Z,53.30
2019-04-10T13:55:42.317Z,53.80
2019-04-10T13:58:11.066Z,53.80
2019-04-10T14:00:41.240Z,54.00
2019-04-10T14:03:10.344Z,54.30
2019-04-10T14:05:39.210Z,54.40
2019-04-10T14:08:08.510Z,54.30
2019-04-10T14:10:40.798Z,54.50
2019-04-10T14:13:07.852Z,54.70
2019-04-10T14:15:37.005Z,54.70
2019-04-10T14:18:06.342Z,54.90
2019-04-10T14:20:35.416Z,55.20
2019-04-10T14:23:12.584Z,55.30
2019-04-10T14:25:45.971Z,55.10
2019-04-10T14:28:14.885Z,54.60
2019-04-10T14:30:45.403Z,54.60
2019-04-10T14:33:14.907Z,54.50
2019-04-10T14:35:44.228Z,53.40
2019-04-10T14:38:14.807Z,53.90
2019-04-10T14:40:45.170Z,54.40
2019-04-10T14:43:14.700Z,54.70
2019-04-10T14:45:43.735Z,54.90
2019-04-10T14:48:12.563Z,55.10
2019-04-10T14:50:41.993Z,55.20
2019-04-10T14:53:11.748Z,55.50
2019-04-10T14:55:41.741Z,55.70
2019-04-10T14:58:20.439Z,56.00
2019-04-10T15:00:46.732Z,56.70
2019-04-10T15:03:16.152Z,57.10
2019-04-10T15:05:50.464Z,56.90
2019-04-10T15:08:15.751Z,56.70
2019-04-10T15:10:44.563Z,57.00
2019-04-10T15:13:17.722Z,57.30
2019-04-10T15:15:46.681Z,57.00
2019-04-10T15:18:15.442Z,57.20
2019-04-10T15:20:45.265Z,57.40
2019-04-10T15:23:15.280Z,58.20
2019-04-10T15:25:44.403Z,58.60
2019-04-10T15:28:13.945Z,59.30
2019-04-10T15:30:43.055Z,59.60
2019-04-10T15:33:12.154Z,59.50
2019-04-10T15:35:41.763Z,60.30
2019-04-10T15:38:11.715Z,59.80
2019-04-10T15:40:40.705Z,60.60
2019-04-10T15:43:10.629Z,61.20
2019-04-10T15:45:39.981Z,61.80
2019-04-10T15:48:09.054Z,63.10
2019-04-10T15:50:39.361Z,63.20
2019-04-10T15:53:09.639Z,63.50
2019-04-10T15:55:38.639Z,63.20
2019-04-10T15:58:08.738Z,64.00
2019-04-10T16:00:37.670Z,64.40
2019-04-10T16:03:06.530Z,64.90
2019-04-10T16:05:35.599Z,64.80
2019-04-10T16:08:04.773Z,65.00
2019-04-10T16:10:41.406Z,65.40
2019-04-10T16:13:12.982Z,67.30
2019-04-10T16:15:43.295Z,67.20
2019-04-10T16:18:16.631Z,67.40
2019-04-10T16:20:47.410Z,66.70
2019-04-10T16:23:24.144Z,67.40
2019-04-10T16:25:54.497Z,67.70
2019-04-10T16:28:23.449Z,68.00
2019-04-10T16:30:53.720Z,68.60
2019-04-10T16:33:23.238Z,69.40
2019-04-10T16:35:52.621Z,70.00
2019-04-10T16:38:22.642Z,70.40
2019-04-10T16:40:52.151Z,70.70
2019-04-10T16:43:22.245Z,70.40
2019-04-10T16:45:51.261Z,70.50
2019-04-10T16:48:20.990Z,70.50
2019-04-10T16:50:49.934Z,70.80
2019-04-10T16:53:18.758Z,70.60
2019-04-10T16:55:49.171Z,71.00
2019-04-10T16:58:18.307Z,71.20
2019-04-10T17:00:47.461Z,71.40
2019-04-10T17:03:17.563Z,71.20
2019-04-10T17:05:46.565Z,70.20
2019-04-10T17:08:16.165Z,70.30
2019-04-10T17:10:45.622Z,70.20
2019-04-10T17:13:14.722Z,70.50
2019-04-10T17:18:49.607Z,70.90
2019-04-10T17:21:19.812Z,71.50
2019-04-10T17:29:58.193Z,71.30
2019-04-10T17:32:29.026Z,70.90
2019-04-10T17:34:58.949Z,70.90
2019-04-10T17:37:27.966Z,71.50
2019-04-10T17:39:57.737Z,71.40
2019-04-10T17:42:28.279Z,71.30
2019-04-10T17:44:58.107Z,71.30
2019-04-10T17:47:27.039Z,70.80
2019-04-10T17:49:56.083Z,70.60
2019-04-10T17:52:25.233Z,70.40
2019-04-10T17:54:55.354Z,71.20
2019-04-10T17:57:33.709Z,70.30
2019-04-10T17:59:54.885Z,70.90
2019-04-10T18:02:23.774Z,71.20
2019-04-10T18:04:52.570Z,71.20
2019-04-10T18:07:21.755Z,71.00
2019-04-10T18:09:50.755Z,71.00
2019-04-10T18:12:19.651Z,71.20
2019-04-10T18:14:49.284Z,70.90
2019-04-10T18:17:18.578Z,70.40
2019-04-10T18:19:47.583Z,70.10
2019-04-10T18:22:16.426Z,69.90
2019-04-10T18:24:45.449Z,70.40
2019-04-10T18:27:14.358Z,70.00
2019-04-10T18:29:43.493Z,70.10
2019-04-10T18:32:13.693Z,70.30
2019-04-10T18:34:42.723Z,69.70
2019-04-10T18:37:14.621Z,69.60
2019-04-10T18:39:42.924Z,69.60
2019-04-10T18:42:11.913Z,69.90
2019-04-10T18:44:41.530Z,70.30
2019-04-10T18:47:11.075Z,70.60
2019-04-10T18:49:40.042Z,70.70
2019-04-10T18:52:08.915Z,71.00
2019-04-10T18:54:37.832Z,71.30
2019-04-10T19:03:23.538Z,70.80
2019-04-10T19:05:58.324Z,68.40
2019-04-10T19:08:28.132Z,67.70
2019-04-10T19:11:10.631Z,66.20
2019-04-10T19:13:28.582Z,66.00
2019-04-10T19:15:57.500Z,65.60
2019-04-10T19:18:28.082Z,65.70
2019-04-10T19:20:58.681Z,64.60
2019-04-10T19:23:27.520Z,64.40
2019-04-10T19:25:56.768Z,65.20
2019-04-10T19:28:33.451Z,64.90
2019-04-10T19:31:08.630Z,64.80
2019-04-10T19:33:31.383Z,65.20
2019-04-10T19:36:00.195Z,65.00
2019-04-10T19:38:33.553Z,64.20
2019-04-10T19:45:07.853Z,64.00
2019-04-10T19:47:36.847Z,64.20
2019-04-10T19:50:06.845Z,64.20
2019-04-10T19:52:36.189Z,63.70
2019-04-10T19:55:07.414Z,63.80
2019-04-10T19:57:39.560Z,63.70
2019-04-10T20:00:14.554Z,63.10
2019-04-10T20:02:43.642Z,62.80
2019-04-10T20:05:15.020Z,63.00
2019-04-10T20:07:43.377Z,63.20
2019-04-10T20:10:12.993Z,63.30
2019-04-10T20:12:42.593Z,63.40
2019-04-10T20:15:12.189Z,62.90
2019-04-10T20:17:41.233Z,63.00
2019-04-10T20:20:13.176Z,63.10
2019-04-10T20:22:42.159Z,63.20
2019-04-10T20:25:12.278Z,63.10
2019-04-10T20:27:44.520Z,63.00
2019-04-10T20:30:13.884Z,63.00
2019-04-10T20:32:44.052Z,63.30
2019-04-10T20:35:12.917Z,63.60
2019-04-10T20:37:42.834Z,63.80
2019-04-10T20:40:11.952Z,63.80
2019-04-10T20:42:40.752Z,63.50
2019-04-10T20:45:09.822Z,63.60
2019-04-10T20:47:39.312Z,63.80
2019-04-10T20:50:08.295Z,63.50
2019-04-10T20:52:39.430Z,63.60
2019-04-10T20:55:09.008Z,63.80
2019-04-10T20:57:38.050Z,64.00
2019-04-10T21:00:09.505Z,63.80
2019-04-10T21:02:38.576Z,64.10
2019-04-10T21:05:09.752Z,64.20
2019-04-10T21:07:37.953Z,64.00
2019-04-10T21:10:06.984Z,64.00
2019-04-10T21:12:36.405Z,64.00
2019-04-10T21:15:06.778Z,63.90
2019-04-10T21:17:35.622Z,63.70
2019-04-10T21:20:07.881Z,63.70
2019-04-10T21:22:36.849Z,63.80
2019-04-10T21:25:06.445Z,63.80
2019-04-10T21:27:35.510Z,64.30
2019-04-10T21:30:15.792Z,64.60
2019-04-10T21:32:53.893Z,64.10
2019-04-10T21:35:33.397Z,64.40
2019-04-10T21:38:02.638Z,64.90
2019-04-10T21:40:32.679Z,65.20
2019-04-10T21:43:01.653Z,65.60
2019-04-10T21:45:30.485Z,65.80
2019-04-10T21:47:59.952Z,65.80
2019-04-10T21:50:29.100Z,65.60
2019-04-10T21:52:57.998Z,65.70
2019-04-10T21:55:26.926Z,65.00
2019-04-10T21:57:55.674Z,64.80
2019-04-10T22:00:42.971Z,64.50
2019-04-10T22:03:11.883Z,64.70
2019-04-10T22:05:42.315Z,64.90
2019-04-10T22:08:19.110Z,65.10
2019-04-10T22:10:50.283Z,65.20
2019-04-10T22:13:19.788Z,65.50
2019-04-10T22:15:49.102Z,66.30
2019-04-10T22:18:17.903Z,66.70
2019-04-10T22:20:47.887Z,67.20
2019-04-10T22:23:17.991Z,67.60
2019-04-10T22:25:47.869Z,67.90
2019-04-10T22:28:17.045Z,67.90
2019-04-10T22:30:45.993Z,68.10
2019-04-10T22:33:15.794Z,68.20
2019-04-10T22:35:44.937Z,68.00
2019-04-10T22:38:13.885Z,67.90
2019-04-10T22:40:42.651Z,67.60
2019-04-10T22:43:11.679Z,67.80
2019-04-10T22:45:40.736Z,68.10
2019-04-10T22:48:09.643Z,68.10
2019-04-10T22:50:38.611Z,68.10
2019-04-10T22:53:08.761Z,67.80
2019-04-10T22:55:38.057Z,67.70
2019-04-10T22:58:07.167Z,67.70
2019-04-10T23:00:36.014Z,67.40
2019-04-10T23:03:05.740Z,67.40
2019-04-10T23:05:34.671Z,67.40
2019-04-10T23:08:03.646Z,67.40
2019-04-10T23:10:33.232Z,67.00
2019-04-10T23:13:05.444Z,66.80
2019-04-10T23:15:33.593Z,66.70
2019-04-10T23:18:03.350Z,66.80
2019-04-10T23:20:32.364Z,66.40
2019-04-10T23:23:01.169Z,66.00
2019-04-10T23:25:29.952Z,66.30
2019-04-10T23:27:58.948Z,66.30
2019-04-10T23:30:28.757Z,66.40
2019-04-10T23:32:57.816Z,66.40
2019-04-10T23:35:27.633Z,66.70
2019-04-10T23:37:57.397Z,67.50
2019-04-10T23:40:27.191Z,68.40
2019-04-10T23:43:07.769Z,69.10
2019-04-10T23:45:26.926Z,69.30
2019-04-10T23:47:56.183Z,69.40
2019-04-10T23:50:26.144Z,69.60
2019-04-10T23:52:56.238Z,69.70
2019-04-10T23:55:26.115Z,70.20
2019-04-10T23:57:55.914Z,70.80
